Time;durP1;ratioP1;P1;durP2;ratioP2;P2;SDS_P1;SDS_P2;PMS_P1;PMS_P2;Temp;Humidity;BMP_temperature;BMP_pressure;BME280_temperature;BME280_humidity;BME280_pressure;Samples;Min_cycle;Max_cycle;Signal;HPM_P1;HPM_P2
2023/05/07 00:01:42;;;;;;;;;3.00;3.00;;;;;19.29;47.82;99052.75;5066975;28;45382;-67
2023/05/07 00:04:08;;;;;;;;;1.25;1.25;;;;;19.26;48.04;99053.88;5056705;28;45645;-67
2023/05/07 00:06:33;;;;;;;;;2.00;2.00;;;;;19.25;47.57;99062.84;5044414;28;46242;-67
2023/05/07 00:08:59;;;;;;;;;2.50;2.00;;;;;19.23;47.81;99070.13;5073288;28;45523;-68
2023/05/07 00:11:25;;;;;;;;;3.00;2.00;;;;;19.23;48.21;99066.59;5075606;28;45412;-67
2023/05/07 00:13:51;;;;;;;;;3.00;3.00;;;;;19.21;48.21;99074.75;5075203;28;45446;-67
2023/05/07 00:16:16;;;;;;;;;1.00;0.00;;;;;19.17;48.38;99073.25;5075662;28;45447;-67
2023/05/07 00:18:42;;;;;;;;;3.00;3.00;;;;;19.15;48.42;99072.53;5074347;28;45436;-67
2023/05/07 00:21:07;;;;;;;;;3.00;3.00;;;;;19.11;48.30;99071.91;5074871;28;45330;-67
2023/05/07 00:23:32;;;;;;;;;1.00;1.00;;;;;19.08;47.74;99080.19;5074823;28;45389;-67
2023/05/07 00:25:58;;;;;;;;;2.75;2.75;;;;;19.03;48.07;99071.63;5065685;28;46120;-67
2023/05/07 00:28:23;;;;;;;;;3.25;3.25;;;;;19.01;48.38;99070.06;5057190;28;45402;-67
2023/05/07 00:30:49;;;;;;;;;3.25;3.25;;;;;18.96;48.27;99075.72;5055050;28;45797;-66
2023/05/07 00:33:14;;;;;;;;;3.00;3.00;;;;;18.93;48.70;99078.66;5054379;28;45335;-66
2023/05/07 00:35:39;;;;;;;;;2.00;2.00;;;;;18.89;48.49;99081.66;5055537;28;46307;-66
2023/05/07 00:38:05;;;;;;;;;1.00;1.00;;;;;18.84;48.16;99074.00;5057597;28;45352;-67
2023/05/07 00:40:30;;;;;;;;;3.00;2.00;;;;;18.80;48.42;99067.16;5054832;28;45544;-66
2023/05/07 00:42:57;;;;;;;;;4.75;3.75;;;;;18.75;48.95;99069.34;5055752;28;45457;-67
2023/05/07 00:45:27;;;;;;;;;2.80;2.80;;;;;18.72;49.14;99070.41;5054903;28;45454;-67
2023/05/07 00:47:59;;;;;;;;;3.00;3.00;;;;;18.69;48.91;99075.97;5053945;28;45476;-67
2023/05/07 00:50:26;;;;;;;;;3.75;3.75;;;;;18.66;49.12;99084.22;5054324;28;45466;-66
2023/05/07 00:52:51;;;;;;;;;2.25;2.25;;;;;18.63;49.17;99081.75;5053774;28;45527;-67
2023/05/07 00:55:17;;;;;;;;;3.00;3.00;;;;;18.60;49.11;99076.66;5054521;28;46365;-67
2023/05/07 00:57:44;;;;;;;;;2.00;2.00;;;;;18.58;49.26;99072.38;5071101;28;45519;-67
2023/05/07 01:00:11;;;;;;;;;2.50;2.00;;;;;18.55;49.32;99064.59;5074783;28;45447;-67
2023/05/07 01:02:37;;;;;;;;;2.00;2.00;;;;;18.52;49.52;99075.47;5055524;28;45350;-67
2023/05/07 01:05:05;;;;;;;;;3.00;3.00;;;;;18.47;49.25;99074.00;5074457;28;45515;-67
2023/05/07 01:07:32;;;;;;;;;3.20;3.20;;;;;18.45;49.68;99081.25;5073938;28;45427;-67
2023/05/07 01:09:58;;;;;;;;;4.00;3.00;;;;;18.43;49.92;99085.03;5074595;28;45496;-67
2023/05/07 01:12:25;;;;;;;;;5.00;2.50;;;;;18.42;49.96;99083.31;5067575;28;45325;-67
2023/05/07 01:14:51;;;;;;;;;3.00;3.00;;;;;18.40;49.91;99085.25;5053934;28;45374;-67
2023/05/07 01:17:17;;;;;;;;;3.60;3.00;;;;;18.37;50.77;99083.66;5054116;28;45337;-67
2023/05/07 01:19:43;;;;;;;;;3.00;3.00;;;;;18.35;50.87;99084.72;5054345;28;45460;-67
2023/05/07 01:22:11;;;;;;;;;2.00;2.00;;;;;18.33;50.73;99090.16;5053680;28;45473;-67
2023/05/07 01:24:37;;;;;;;;;4.80;3.20;;;;;18.31;50.45;99092.09;5053941;28;46427;-67
2023/05/07 01:27:03;;;;;;;;;5.00;3.00;;;;;18.30;50.48;99094.88;5059413;28;45400;-67
2023/05/07 01:29:28;;;;;;;;;4.00;4.00;;;;;18.29;51.04;99093.16;5054121;28;45295;-66
2023/05/07 01:31:58;;;;;;;;;4.00;4.00;;;;;18.27;50.35;99092.41;5053567;28;45625;-66
2023/05/07 01:34:26;;;;;;;;;2.75;2.75;;;;;18.23;50.61;99090.94;5053833;28;45357;-66
2023/05/07 01:36:55;;;;;;;;;3.60;2.40;;;;;18.23;51.08;99093.63;5058151;28;45468;-66
2023/05/07 01:39:21;;;;;;;;;3.00;3.00;;;;;18.24;50.79;99096.19;5053992;28;45405;-66
2023/05/07 01:41:46;;;;;;;;;2.75;2.00;;;;;18.27;50.85;99103.09;5055560;28;45420;-67
2023/05/07 01:44:13;;;;;;;;;3.75;2.25;;;;;18.25;51.36;99099.72;5053352;28;46632;-67
2023/05/07 01:46:38;;;;;;;;;3.40;3.40;;;;;18.22;51.10;99092.78;5061082;28;45442;-67
2023/05/07 01:49:04;;;;;;;;;4.25;2.75;;;;;18.20;50.85;99088.50;5054916;28;45599;-67
2023/05/07 01:51:31;;;;;;;;;5.25;4.25;;;;;18.19;51.17;99092.13;5051740;28;45850;-67
2023/05/07 01:53:56;;;;;;;;;3.00;3.00;;;;;18.19;51.26;99084.13;5067059;28;46114;-67
2023/05/07 01:56:22;;;;;;;;;2.75;2.00;;;;;18.19;51.23;99092.97;5073778;28;45399;-67
2023/05/07 01:58:48;;;;;;;;;3.50;3.50;;;;;18.18;51.25;99083.28;5067228;28;45503;-67
2023/05/07 02:01:14;;;;;;;;;3.00;3.00;;;;;18.19;51.02;99087.66;5060915;28;45528;-67
2023/05/07 02:03:39;;;;;;;;;2.50;2.00;;;;;18.20;50.88;99085.81;5060181;28;46544;-68
2023/05/07 02:06:05;;;;;;;;;3.00;3.00;;;;;18.21;51.06;99087.53;5054993;28;45450;-68
2023/05/07 02:08:30;;;;;;;;;3.00;3.00;;;;;18.22;50.89;99089.25;5056871;28;45397;-68
2023/05/07 02:10:56;;;;;;;;;2.25;2.25;;;;;18.20;50.95;99094.69;5059346;28;45310;-67
2023/05/07 02:13:25;;;;;;;;;3.00;3.00;;;;;18.19;51.33;99095.66;5062347;28;46362;-67
2023/05/07 02:15:50;;;;;;;;;3.60;3.60;;;;;18.16;51.13;99101.19;5056679;28;45384;-67
2023/05/07 02:18:16;;;;;;;;;2.50;2.25;;;;;18.12;51.55;99089.03;5058059;28;45803;-67
2023/05/07 02:20:42;;;;;;;;;2.50;2.00;;;;;18.08;51.67;99101.75;5076814;28;45535;-67
2023/05/07 02:23:07;;;;;;;;;4.00;4.00;;;;;18.02;51.97;99091.53;5076865;28;46224;-67
2023/05/07 02:25:33;;;;;;;;;3.50;3.50;;;;;17.92;51.92;99090.47;5077397;28;45398;-67
2023/05/07 02:27:58;;;;;;;;;4.50;4.00;;;;;17.86;52.62;99087.38;5061777;28;46033;-67
2023/05/07 02:30:25;;;;;;;;;3.00;3.00;;;;;17.82;52.66;99091.22;5065090;28;45391;-67
2023/05/07 02:32:50;;;;;;;;;4.20;4.00;;;;;17.78;52.52;99079.91;5076130;28;45638;-68
2023/05/07 02:35:15;;;;;;;;;4.00;4.00;;;;;17.74;53.17;99091.75;5077090;28;45313;-67
2023/05/07 02:37:41;;;;;;;;;3.00;3.00;;;;;17.69;53.28;99089.41;5062174;28;45310;-67
2023/05/07 02:40:07;;;;;;;;;7.25;3.50;;;;;17.66;53.78;99094.09;5056582;28;45261;-67
2023/05/07 02:42:32;;;;;;;;;4.00;4.00;;;;;17.65;53.35;99079.91;5059593;28;45472;-67
2023/05/07 02:44:58;;;;;;;;;3.00;3.00;;;;;17.65;53.46;99092.38;5062438;28;45465;-67
2023/05/07 02:47:23;;;;;;;;;3.75;3.75;;;;;17.66;53.44;99091.44;5076748;28;45367;-67
2023/05/07 02:49:48;;;;;;;;;3.50;3.50;;;;;17.66;52.53;99089.63;5076797;28;45437;-67
2023/05/07 02:52:14;;;;;;;;;3.25;3.25;;;;;17.65;54.17;99092.38;5076055;28;46478;-67
2023/05/07 02:54:39;;;;;;;;;4.00;3.50;;;;;17.62;54.02;99095.22;5076957;28;45516;-67
2023/05/07 02:57:05;;;;;;;;;4.00;4.00;;;;;17.55;54.46;99092.16;5076369;28;45582;-66
2023/05/07 02:59:30;;;;;;;;;4.00;4.00;;;;;17.51;54.61;99095.13;5070015;28;45507;-66
2023/05/07 03:01:55;;;;;;;;;3.00;3.00;;;;;17.47;54.34;99088.28;5057776;28;46192;-68
2023/05/07 03:04:21;;;;;;;;;3.75;3.75;;;;;17.43;54.94;99079.66;5056325;28;45536;-66
2023/05/07 03:06:46;;;;;;;;;5.00;4.00;;;;;17.42;54.37;99077.97;5055568;28;45397;-68
2023/05/07 03:09:11;;;;;;;;;4.50;4.50;;;;;17.39;54.54;99078.16;5056173;28;45435;-68
2023/05/07 03:11:37;;;;;;;;;4.00;3.00;;;;;17.34;54.88;99075.81;5063464;28;46217;-68
2023/05/07 03:14:02;;;;;;;;;7.00;6.00;;;;;17.29;55.58;99080.59;5055274;28;45480;-66
2023/05/07 03:16:28;;;;;;;;;4.00;4.00;;;;;17.23;55.02;99074.84;5069499;28;45545;-67
2023/05/07 03:18:53;;;;;;;;;6.00;5.00;;;;;17.20;55.90;99075.06;5076310;28;45443;-67
2023/05/07 03:21:19;;;;;;;;;4.00;3.00;;;;;17.16;56.09;99070.88;5075986;28;45337;-67
2023/05/07 03:23:44;;;;;;;;;4.75;4.75;;;;;17.13;56.06;99069.28;5075819;28;45381;-66
2023/05/07 03:26:10;;;;;;;;;4.00;4.00;;;;;17.10;55.71;99075.66;5067312;28;45655;-67
2023/05/07 03:28:35;;;;;;;;;5.00;5.00;;;;;17.12;56.04;99072.03;5056381;28;45401;-66
2023/05/07 03:31:00;;;;;;;;;5.75;5.00;;;;;17.14;55.94;99073.66;5055638;28;45542;-67
2023/05/07 03:33:27;;;;;;;;;4.50;4.00;;;;;17.17;56.03;99070.78;5074670;28;45443;-66
2023/05/07 03:35:52;;;;;;;;;4.25;3.00;;;;;17.21;56.09;99077.63;5075064;28;45349;-67
2023/05/07 03:38:18;;;;;;;;;4.00;4.00;;;;;17.24;55.84;99074.75;5057359;28;45487;-67
2023/05/07 03:40:43;;;;;;;;;4.25;4.00;;;;;17.27;55.94;99077.19;5075585;28;45481;-67
2023/05/07 03:43:09;;;;;;;;;5.75;4.00;;;;;17.31;55.94;99080.50;5070367;28;45615;-67
2023/05/07 03:45:34;;;;;;;;;4.75;4.75;;;;;17.34;55.67;99081.16;5055224;28;45562;-67
2023/05/07 03:48:00;;;;;;;;;6.00;4.25;;;;;17.37;55.97;99086.28;5074104;28;45388;-67
2023/05/07 03:50:25;;;;;;;;;5.00;4.75;;;;;17.40;56.25;99085.22;5075283;28;45596;-67
2023/05/07 03:52:51;;;;;;;;;5.00;3.75;;;;;17.45;56.52;99088.38;5075513;28;45583;-67
2023/05/07 03:55:16;;;;;;;;;7.00;6.00;;;;;17.46;56.38;99087.44;5075947;28;45459;-67
2023/05/07 03:57:41;;;;;;;;;6.00;6.00;;;;;17.47;56.35;99091.81;5070341;28;45423;-66
2023/05/07 04:00:07;;;;;;;;;4.50;4.50;;;;;17.48;56.27;99090.84;5073985;28;46610;-67
2023/05/07 04:02:33;;;;;;;;;5.00;5.00;;;;;17.48;56.47;99098.84;5056884;28;45884;-67
2023/05/07 04:04:58;;;;;;;;;4.25;4.25;;;;;17.45;56.62;99089.25;5075560;28;45464;-66
2023/05/07 04:07:24;;;;;;;;;8.00;5.00;;;;;17.41;56.54;99098.44;5075038;28;45404;-67
2023/05/07 04:09:49;;;;;;;;;4.75;4.75;;;;;17.36;57.27;99100.56;5074979;28;46465;-67
2023/05/07 04:12:14;;;;;;;;;5.75;5.75;;;;;17.34;57.54;99104.28;5070950;28;45315;-67
2023/05/07 04:14:40;;;;;;;;;4.75;4.00;;;;;17.32;57.31;99106.19;5055083;28;45377;-66
2023/05/07 04:17:06;;;;;;;;;7.50;6.00;;;;;17.29;57.93;99114.38;5054851;28;45593;-66
2023/05/07 04:19:33;;;;;;;;;8.00;7.00;;;;;17.29;57.51;99112.56;5064447;28;46987;-67
2023/05/07 04:21:58;;;;;;;;;6.60;6.40;;;;;17.23;57.93;99120.13;5056080;28;45443;-67
2023/05/07 04:24:24;;;;;;;;;5.50;5.50;;;;;17.14;57.97;99124.25;5075586;28;45511;-66
2023/05/07 04:26:50;;;;;;;;;6.75;5.50;;;;;17.07;58.02;99130.97;5051439;28;45590;-66
2023/05/07 04:29:16;;;;;;;;;8.50;8.00;;;;;17.04;58.08;99128.50;5054645;28;46408;-66
2023/05/07 04:31:44;;;;;;;;;7.75;5.00;;;;;17.04;58.68;99131.16;5053655;28;45459;-67
2023/05/07 04:34:10;;;;;;;;;6.75;6.00;;;;;17.07;58.43;99138.97;5054210;28;45325;-67
2023/05/07 04:36:37;;;;;;;;;9.25;7.75;;;;;17.10;58.47;99141.41;5058780;28;45385;-66
2023/05/07 04:39:03;;;;;;;;;6.75;5.50;;;;;17.10;58.42;99136.94;5054618;28;46177;-67
2023/05/07 04:41:29;;;;;;;;;8.00;6.25;;;;;17.13;58.34;99140.34;5057013;28;45444;-67
2023/05/07 04:43:55;;;;;;;;;6.00;6.00;;;;;17.16;58.50;99143.66;5054787;28;45388;-67
2023/05/07 04:46:20;;;;;;;;;6.25;6.00;;;;;17.20;58.45;99142.50;5054392;28;45558;-68
2023/05/07 04:48:46;;;;;;;;;6.75;6.00;;;;;17.23;58.40;99139.66;5054402;28;45429;-67
2023/05/07 04:51:11;;;;;;;;;8.75;7.25;;;;;17.27;58.57;99150.94;5054256;28;45412;-67
2023/05/07 04:53:37;;;;;;;;;9.50;6.00;;;;;17.31;58.14;99152.44;5063816;28;45493;-67
2023/05/07 04:56:03;;;;;;;;;7.00;7.00;;;;;17.34;58.51;99155.75;5074551;28;45568;-67
2023/05/07 04:58:31;;;;;;;;;8.00;8.00;;;;;17.36;58.97;99153.00;5070173;28;45446;-67
2023/05/07 05:00:57;;;;;;;;;8.00;6.20;;;;;17.39;58.71;99150.97;5061585;28;45354;-67
2023/05/07 05:03:22;;;;;;;;;7.50;7.50;;;;;17.38;58.86;99157.28;5062378;28;45338;-67
2023/05/07 05:05:49;;;;;;;;;6.50;6.50;;;;;17.37;58.95;99163.56;5053640;28;45440;-67
2023/05/07 05:08:15;;;;;;;;;8.00;7.75;;;;;17.37;59.30;99158.22;5054006;28;46324;-67
2023/05/07 05:10:41;;;;;;;;;7.75;7.75;;;;;17.37;59.45;99160.88;5054529;28;45393;-67
2023/05/07 05:13:07;;;;;;;;;12.50;10.25;;;;;17.40;59.57;99165.16;5062565;28;45452;-67
2023/05/07 05:15:33;;;;;;;;;6.75;6.75;;;;;17.38;59.58;99169.75;5053725;28;45573;-68
2023/05/07 05:17:58;;;;;;;;;6.75;6.75;;;;;17.34;59.73;99170.91;5054276;28;45451;-68
2023/05/07 05:20:24;;;;;;;;;9.00;8.00;;;;;17.28;60.28;99172.16;5066247;28;45493;-68
2023/05/07 05:22:49;;;;;;;;;10.75;10.75;;;;;17.21;60.33;99172.66;5044499;28;45450;-68
2023/05/07 05:25:15;;;;;;;;;7.75;7.75;;;;;17.13;60.47;99173.16;5072854;28;45336;-67
2023/05/07 05:27:40;;;;;;;;;11.25;9.00;;;;;17.05;60.79;99189.66;5062490;28;45440;-68
2023/05/07 05:30:06;;;;;;;;;9.25;8.50;;;;;16.98;60.71;99185.69;5054079;28;45363;-67
2023/05/07 05:32:31;;;;;;;;;10.25;9.25;;;;;16.89;60.85;99186.31;5053411;28;45460;-68
2023/05/07 05:34:57;;;;;;;;;8.00;8.00;;;;;16.83;61.66;99172.50;5053285;28;45384;-68
2023/05/07 05:37:22;;;;;;;;;8.50;8.50;;;;;16.77;62.32;99172.91;5067791;28;46944;-68
2023/05/07 05:39:48;;;;;;;;;10.50;8.75;;;;;16.70;62.73;99183.09;5074055;28;45310;-67
2023/05/07 05:42:13;;;;;;;;;6.50;6.00;;;;;16.63;61.13;99179.97;5063885;28;45368;-67
2023/05/07 05:44:38;;;;;;;;;8.00;8.00;;;;;16.54;62.72;99180.53;5053779;28;45393;-67
2023/05/07 05:47:04;;;;;;;;;6.25;6.25;;;;;16.48;62.92;99177.41;5053509;28;45384;-67
2023/05/07 05:49:29;;;;;;;;;8.75;8.75;;;;;16.45;62.20;99174.91;5053823;28;45382;-68
2023/05/07 05:51:55;;;;;;;;;7.75;7.75;;;;;16.40;62.88;99177.91;5035885;28;45424;-68
2023/05/07 05:54:21;;;;;;;;;6.75;6.75;;;;;16.36;62.91;99176.38;5035883;28;45425;-68
2023/05/07 05:56:46;;;;;;;;;7.50;7.00;;;;;16.34;62.93;99172.94;5063052;28;45917;-68
2023/05/07 05:59:12;;;;;;;;;7.25;7.25;;;;;16.33;63.48;99173.91;5055730;28;45460;-68
2023/05/07 06:01:38;;;;;;;;;9.25;8.75;;;;;16.31;62.11;99171.34;5073473;28;45547;-67
2023/05/07 06:04:03;;;;;;;;;8.75;8.00;;;;;16.30;63.32;99164.31;5061069;28;45424;-68
2023/05/07 06:06:29;;;;;;;;;6.00;6.00;;;;;16.31;63.38;99181.13;5053027;28;45464;-67
2023/05/07 06:08:54;;;;;;;;;5.25;4.50;;;;;16.30;64.37;99184.72;5052917;28;45403;-67
2023/05/07 06:11:20;;;;;;;;;5.75;5.75;;;;;16.30;62.75;99179.41;5059383;28;45791;-67
2023/05/07 06:13:45;;;;;;;;;6.50;5.50;;;;;16.32;63.08;99175.72;5037802;28;45479;-67
2023/05/07 06:16:10;;;;;;;;;8.50;7.00;;;;;16.36;62.75;99173.72;5053184;28;45445;-67
2023/05/07 06:18:36;;;;;;;;;6.25;6.25;;;;;16.38;62.38;99170.00;5053407;28;45333;-67
2023/05/07 06:21:02;;;;;;;;;8.25;8.25;;;;;16.45;61.63;99165.13;5053423;28;45710;-67
2023/05/07 06:23:27;;;;;;;;;6.00;6.00;;;;;16.52;62.86;99169.13;5035166;28;45424;-67
2023/05/07 06:25:52;;;;;;;;;7.25;6.75;;;;;16.61;62.06;99168.53;5059806;28;45377;-69
2023/05/07 06:28:18;;;;;;;;;5.25;5.25;;;;;16.74;61.89;99166.84;5058045;28;45384;-67
2023/05/07 06:30:43;;;;;;;;;7.75;7.75;;;;;16.88;61.55;99165.94;5055758;28;45451;-68
2023/05/07 06:33:09;;;;;;;;;6.00;6.00;;;;;17.08;61.07;99170.84;5053437;28;45484;-67
2023/05/07 06:35:34;;;;;;;;;6.75;5.00;;;;;17.22;60.42;99169.06;5062990;28;46458;-68
2023/05/07 06:38:00;;;;;;;;;5.75;5.50;;;;;17.37;60.27;99170.69;5056199;28;45439;-68
2023/05/07 06:40:26;;;;;;;;;7.00;6.00;;;;;17.49;59.97;99167.19;5053447;28;45472;-68
2023/05/07 06:42:51;;;;;;;;;6.50;5.50;;;;;17.61;59.13;99174.34;5054252;28;45527;-68
2023/05/07 06:45:17;;;;;;;;;6.50;6.50;;;;;17.72;58.68;99169.19;5052772;28;46592;-68
2023/05/07 06:47:42;;;;;;;;;6.00;6.00;;;;;17.85;58.34;99179.00;5034200;28;45438;-68
2023/05/07 06:50:09;;;;;;;;;5.25;5.25;;;;;17.93;58.24;99172.16;5059624;28;45337;-68
2023/05/07 06:52:35;;;;;;;;;7.50;7.00;;;;;18.03;57.65;99170.59;5056451;28;45283;-68
2023/05/07 06:55:00;;;;;;;;;5.75;5.00;;;;;18.15;57.28;99176.88;5056664;28;46424;-68
2023/05/07 06:57:26;;;;;;;;;5.00;5.00;;;;;18.27;56.65;99177.81;5067957;28;45380;-68
2023/05/07 06:59:51;;;;;;;;;5.25;5.25;;;;;18.39;56.69;99174.31;5063775;28;45337;-68
2023/05/07 07:02:16;;;;;;;;;5.25;5.25;;;;;18.51;56.62;99165.41;5051944;28;45366;-68
2023/05/07 07:04:42;;;;;;;;;6.00;5.00;;;;;18.67;56.33;99170.53;5055922;28;46630;-67
2023/05/07 07:07:07;;;;;;;;;8.75;6.00;;;;;18.78;55.89;99168.78;5055900;28;45359;-67
2023/05/07 07:09:33;;;;;;;;;5.75;5.00;;;;;18.90;56.00;99168.88;5061034;28;45358;-67
2023/05/07 07:11:58;;;;;;;;;4.75;4.75;;;;;18.98;55.80;99175.34;5066845;28;45458;-67
2023/05/07 07:14:24;;;;;;;;;4.25;4.25;;;;;19.03;55.48;99172.34;5076624;28;45627;-67
2023/05/07 07:16:49;;;;;;;;;4.25;4.25;;;;;19.08;55.00;99173.72;5073764;28;45375;-68
2023/05/07 07:19:17;;;;;;;;;4.00;4.00;;;;;19.12;54.47;99174.31;5055978;28;45573;-68
2023/05/07 07:21:43;;;;;;;;;4.50;4.50;;;;;19.17;54.57;99182.84;5054911;28;45577;-68
2023/05/07 07:24:08;;;;;;;;;4.00;4.00;;;;;19.19;54.50;99183.59;5065058;28;46482;-67
2023/05/07 07:26:34;;;;;;;;;6.00;5.25;;;;;19.24;54.67;99178.75;5075640;28;45417;-68
2023/05/07 07:28:59;;;;;;;;;2.25;2.25;;;;;19.33;54.00;99185.22;5075660;28;45412;-69
2023/05/07 07:31:24;;;;;;;;;5.00;4.00;;;;;19.43;53.97;99187.13;5075540;28;45487;-69
2023/05/07 07:33:50;;;;;;;;;6.75;5.25;;;;;19.52;53.36;99181.09;5073447;28;45428;-69
2023/05/07 07:36:16;;;;;;;;;4.00;4.00;;;;;19.63;53.55;99192.78;5075588;28;45453;-68
2023/05/07 07:38:41;;;;;;;;;5.25;5.00;;;;;19.68;52.90;99191.47;5057413;28;45369;-68
2023/05/07 07:41:08;;;;;;;;;6.25;5.50;;;;;19.76;53.39;99188.22;5075266;28;45417;-68
2023/05/07 07:43:35;;;;;;;;;7.80;5.20;;;;;19.84;53.03;99183.97;5075832;28;46593;-68
2023/05/07 07:46:01;;;;;;;;;5.40;5.40;;;;;20.00;53.11;99191.66;5059633;28;45664;-68
2023/05/07 07:48:26;;;;;;;;;8.50;7.00;;;;;20.15;53.21;99192.28;5055655;28;45482;-68
2023/05/07 07:50:51;;;;;;;;;5.25;5.25;;;;;20.31;53.12;99194.63;5057101;28;45456;-68
2023/05/07 07:53:18;;;;;;;;;6.00;5.00;;;;;20.42;52.65;99198.22;5075611;28;46064;-67
2023/05/07 07:55:43;;;;;;;;;7.00;6.00;;;;;20.55;52.74;99187.34;5075548;28;45535;-67
2023/05/07 07:58:09;;;;;;;;;5.50;5.50;;;;;20.70;51.74;99199.53;5070151;28;45404;-70
2023/05/07 08:00:34;;;;;;;;;7.50;5.75;;;;;20.71;51.92;99190.50;5061216;28;45389;-67
2023/05/07 08:03:00;;;;;;;;;7.75;6.00;;;;;20.72;51.45;99194.03;5066970;28;45611;-68
2023/05/07 08:05:25;;;;;;;;;5.75;5.75;;;;;20.74;51.70;99192.09;5054844;28;45531;-68
2023/05/07 08:07:52;;;;;;;;;6.50;6.50;;;;;20.72;51.08;99189.53;5055453;28;45723;-68
2023/05/07 08:10:21;;;;;;;;;8.00;8.00;;;;;20.77;51.37;99191.84;5036441;28;45372;-68
2023/05/07 08:12:50;;;;;;;;;7.00;7.00;;;;;20.75;51.13;99191.97;5062877;28;45602;-68
2023/05/07 08:15:16;;;;;;;;;5.20;5.00;;;;;20.71;50.98;99190.50;5054667;28;45632;-68
2023/05/07 08:17:42;;;;;;;;;6.40;6.00;;;;;20.71;50.76;99195.00;5054498;28;45341;-68
2023/05/07 08:20:08;;;;;;;;;2.25;1.75;;;;;20.64;50.67;99186.59;5054253;28;45294;-68
2023/05/07 08:22:36;;;;;;;;;3.75;3.75;;;;;20.55;50.97;99179.31;5054355;28;45578;-68
2023/05/07 08:25:03;;;;;;;;;6.00;6.00;;;;;20.50;51.14;99182.38;5052822;28;46010;-68
2023/05/07 08:27:28;;;;;;;;;6.25;6.25;;;;;20.43;51.50;99189.19;5065085;28;45444;-68
2023/05/07 08:29:54;;;;;;;;;5.50;5.50;;;;;20.42;51.33;99200.03;5060378;28;45430;-68
2023/05/07 08:32:20;;;;;;;;;6.75;6.75;;;;;20.48;51.66;99202.19;5054453;28;46155;-69
2023/05/07 08:34:46;;;;;;;;;5.50;5.00;;;;;20.50;51.61;99192.22;5054178;28;45325;-69
2023/05/07 08:37:11;;;;;;;;;9.00;7.75;;;;;20.47;51.36;99203.16;5050035;28;45424;-69
2023/05/07 08:39:37;;;;;;;;;8.00;6.00;;;;;20.46;51.45;99201.47;5064634;28;45224;-69
2023/05/07 08:42:04;;;;;;;;;5.00;5.00;;;;;20.52;51.15;99214.38;5057793;28;45332;-69
2023/05/07 08:44:33;;;;;;;;;5.60;5.60;;;;;20.59;51.36;99210.25;5064066;28;45565;-70
2023/05/07 08:47:01;;;;;;;;;6.50;6.50;;;;;20.67;51.55;99204.28;5054850;28;45430;-70
2023/05/07 08:49:27;;;;;;;;;8.00;7.00;;;;;20.71;51.38;99203.06;5054097;28;45428;-70
2023/05/07 08:51:53;;;;;;;;;6.00;6.00;;;;;20.70;51.30;99202.19;5053680;28;46788;-69
2023/05/07 08:54:20;;;;;;;;;8.25;7.00;;;;;20.68;52.21;99216.69;5054515;28;45417;-69
2023/05/07 08:56:46;;;;;;;;;7.75;7.50;;;;;20.66;51.57;99208.78;5063840;28;45380;-69
2023/05/07 08:59:11;;;;;;;;;7.75;5.50;;;;;20.64;51.49;99215.22;5068743;28;45408;-69
2023/05/07 09:01:38;;;;;;;;;6.00;6.00;;;;;20.65;52.47;99217.78;5074411;28;45651;-69
2023/05/07 09:04:03;;;;;;;;;7.40;5.60;;;;;20.71;52.50;99221.81;5060575;28;45410;-70
2023/05/07 09:06:29;;;;;;;;;8.25;7.75;;;;;20.75;53.26;99218.78;5074503;28;45431;-69
2023/05/07 09:08:57;;;;;;;;;8.00;7.50;;;;;20.78;52.74;99217.69;5074585;28;45382;-69
2023/05/07 09:11:23;;;;;;;;;6.40;6.40;;;;;20.77;53.24;99224.00;5069083;28;45714;-69
2023/05/07 09:13:52;;;;;;;;;7.25;6.25;;;;;20.77;52.83;99224.88;5073778;28;45396;-70
2023/05/07 09:16:21;;;;;;;;;5.00;5.00;;;;;20.72;53.10;99229.72;5074369;28;45453;-70
2023/05/07 09:18:47;;;;;;;;;4.25;4.00;;;;;20.61;53.18;99229.72;5074655;28;45383;-70
2023/05/07 09:21:17;;;;;;;;;5.80;4.00;;;;;20.48;53.38;99232.53;5074182;28;45633;-69
2023/05/07 09:23:42;;;;;;;;;4.20;4.20;;;;;20.39;52.76;99235.09;5074333;28;45377;-70
2023/05/07 09:26:16;;;;;;;;;9.75;9.00;;;;;20.31;53.91;99245.50;5039064;28;45547;-70
2023/05/07 09:28:42;;;;;;;;;9.75;8.75;;;;;20.20;54.37;99257.03;5074209;28;45357;-68
2023/05/07 09:31:09;;;;;;;;;7.50;6.00;;;;;20.19;55.78;99258.03;5055538;28;47100;-68
2023/05/07 09:33:35;;;;;;;;;9.60;9.60;;;;;20.21;56.25;99256.06;5054116;28;45445;-68
2023/05/07 09:36:08;;;;;;;;;10.75;9.50;;;;;20.24;56.25;99258.53;5053517;28;45427;-68
2023/05/07 09:38:35;;;;;;;;;9.50;9.50;;;;;20.25;55.97;99256.69;5047521;28;46078;-68
2023/05/07 09:41:12;;;;;;;;;11.00;11.00;;;;;20.26;56.97;99255.72;5036993;28;47400;-68
2023/05/07 09:43:39;;;;;;;;;9.20;9.20;;;;;20.29;56.87;99250.09;5053675;28;45424;-68
2023/05/07 09:46:11;;;;;;;;;6.75;6.75;;;;;20.31;56.52;99248.16;5069727;28;45445;-69
2023/05/07 09:48:43;;;;;;;;;34.00;29.75;;;;;20.31;56.98;99249.03;5073574;28;45487;-69
2023/05/07 09:51:41;;;;;;;;;7.50;7.50;;;;;20.26;55.76;99251.22;5072964;28;46695;-68
2023/05/07 09:54:06;;;;;;;;;4.00;4.00;;;;;20.19;55.61;99256.19;5073687;28;45375;-68
2023/05/07 09:56:33;;;;;;;;;6.25;5.00;;;;;20.14;56.31;99249.47;5073713;28;45480;-69
2023/05/07 09:59:03;;;;;;;;;7.00;5.75;;;;;20.09;56.96;99257.88;5066060;28;45389;-68
2023/05/07 10:01:31;;;;;;;;;5.20;4.40;;;;;20.05;56.22;99253.72;5062448;28;45436;-68
2023/05/07 10:03:57;;;;;;;;;5.00;3.80;;;;;19.97;56.79;99258.81;5038192;28;45448;-68
2023/05/07 10:06:25;;;;;;;;;2.00;2.00;;;;;19.94;55.32;99261.72;5063434;28;45487;-68
2023/05/07 10:08:52;;;;;;;;;2.00;2.00;;;;;19.80;55.15;99261.91;5073073;28;45464;-68
2023/05/07 10:11:18;;;;;;;;;2.80;2.80;;;;;19.56;53.25;99267.31;5073110;28;45662;-68
2023/05/07 10:13:43;;;;;;;;;2.00;2.00;;;;;19.39;54.06;99271.19;5037054;28;46067;-69
2023/05/07 10:16:09;;;;;;;;;1.00;1.00;;;;;19.25;53.61;99276.69;5052754;28;45362;-68
2023/05/07 10:18:35;;;;;;;;;5.75;4.50;;;;;19.14;53.60;99272.13;5052717;28;45410;-68
2023/05/07 10:21:15;;;;;;;;;2.00;2.00;;;;;19.04;54.13;99283.59;5051973;28;46246;-68
2023/05/07 10:23:57;;;;;;;;;3.40;3.40;;;;;18.92;53.97;99271.97;5034403;28;45401;-68
2023/05/07 10:26:25;;;;;;;;;3.20;3.20;;;;;18.86;55.27;99276.91;5061225;28;45280;-69
2023/05/07 10:28:56;;;;;;;;;4.00;4.00;;;;;18.77;55.98;99276.56;5062734;28;45500;-68
2023/05/07 10:31:33;;;;;;;;;4.50;3.25;;;;;18.69;57.44;99278.09;5076403;28;46390;-68
2023/05/07 10:34:01;;;;;;;;;4.00;3.00;;;;;18.63;56.91;99275.84;5058177;28;45496;-68
2023/05/07 10:36:27;;;;;;;;;3.80;3.00;;;;;18.52;57.21;99279.25;5072528;28;45373;-69
2023/05/07 10:38:53;;;;;;;;;5.50;3.25;;;;;18.41;56.96;99274.69;5055942;28;46340;-68
2023/05/07 10:41:20;;;;;;;;;4.00;2.75;;;;;18.33;57.66;99277.00;5073444;28;46222;-68
2023/05/07 10:43:46;;;;;;;;;3.40;3.40;;;;;18.28;57.73;99283.63;5076489;28;45542;-68
2023/05/07 10:46:16;;;;;;;;;3.25;3.25;;;;;18.26;57.71;99293.56;5058654;28;45408;-69
2023/05/07 10:49:00;;;;;;;;;2.50;2.00;;;;;18.26;58.25;99291.75;5076487;28;45443;-69
2023/05/07 10:51:26;;;;;;;;;4.00;4.00;;;;;18.25;57.95;99276.69;5076075;28;46108;-69
2023/05/07 10:54:10;;;;;;;;;2.00;2.00;;;;;18.29;59.09;99291.53;5076244;28;45397;-69
2023/05/07 10:56:39;;;;;;;;;3.00;2.80;;;;;18.31;59.01;99283.41;5076371;28;45361;-69
2023/05/07 10:59:31;;;;;;;;;3.00;3.00;;;;;18.33;58.62;99282.34;5072426;28;45396;-69
2023/05/07 11:01:58;;;;;;;;;4.00;4.00;;;;;18.39;58.48;99281.06;5051621;28;47631;-69
2023/05/07 11:04:26;;;;;;;;;4.00;4.00;;;;;18.44;58.83;99285.13;5056202;28;45446;-69
2023/05/07 11:07:06;;;;;;;;;3.25;3.25;;;;;18.49;59.17;99284.81;5069689;28;45347;-69
2023/05/07 11:09:54;;;;;;;;;4.00;3.75;;;;;18.56;58.48;99282.56;5076656;28;45588;-68
2023/05/07 11:12:38;;;;;;;;;4.00;3.75;;;;;18.63;58.65;99287.38;5070571;28;45571;-70
2023/05/07 11:15:11;;;;;;;;;2.00;2.00;;;;;18.71;58.25;99286.88;5065510;28;45424;-70
2023/05/07 11:17:59;;;;;;;;;2.75;2.75;;;;;18.78;58.51;99288.97;5056012;28;45467;-69
2023/05/07 11:20:47;;;;;;;;;3.25;3.25;;;;;18.88;58.62;99296.34;5074036;28;45519;-69
2023/05/07 11:23:34;;;;;;;;;3.00;3.00;;;;;18.92;58.30;99297.84;5055937;28;45453;-68
2023/05/07 11:26:05;;;;;;;;;4.20;3.00;;;;;18.87;58.14;99291.97;5058793;28;45448;-70
2023/05/07 11:28:35;;;;;;;;;3.80;3.60;;;;;18.83;58.48;99296.66;5056915;28;45444;-68
2023/05/07 11:31:02;;;;;;;;;4.00;3.50;;;;;18.80;58.39;99307.56;5055757;28;45488;-69
2023/05/07 11:33:28;;;;;;;;;2.00;2.00;;;;;18.75;58.80;99304.38;5055322;28;45584;-69